Terminal Aerodrome Forecast
Issued by NWS

Home | Current Version | Previous Version | Text Only | Print | Product List | Glossary On
Versions: 1 2 3 4 5 6 7 8 9 10 11 12 13 14 15 16 17 18 19 20
000
FTUS42 KTAE 282320
TAFVLD
TAF
KVLD 282320Z 2900/2924 00000KT P6SM BKN150
     FM290800 00000KT 2SM BR BKN005
     FM291400 18004KT P6SM SCT020
     FM291900 19007KT P6SM SCT040=

USA.gov is the U.S. government's official web portal to all federal, state and local government web resources and services.